Chichester, United Kingdom
Current Conditions -  °F | °C
As of 5:50 PM on Thursday 27 Nov 2014 (Local Time) from EGKA Reporting Station
Scattered Clouds Scattered Clouds  
Wind Chill: 12°   Ceiling: Unl
Heat Index: 12°   Visibility: 6mi
Dew Point:   Wind: 9mph
Humidity: 82%   Direction: 130°SE
Pressure: 29.56"   Gusts: NA
Location:  50.84°N, 0.78°W
Report Text: EGKA 271750Z 13008KT 9999 FEW011 SCT030 12/09 Q1001
Loading
Personal Weather Stations






























Interactive Weather Map New forecast layout! Learn more

10-Day Weather Forecast

Advertisements
Track Severe Weather on mobile